createdAt,value
2022-10-01T00:02:08.015Z,99031.25
2022-10-01T00:04:37.537Z,99033.59
2022-10-01T00:07:09.582Z,99032.28
2022-10-01T00:09:37.479Z,99024.75
2022-10-01T00:12:05.159Z,99021.59
2022-10-01T00:14:32.833Z,99029.91
2022-10-01T00:17:00.392Z,99025.28
2022-10-01T00:19:28.172Z,99040.94
2022-10-01T00:21:56.148Z,99040.59
2022-10-01T00:24:23.994Z,99036.94
2022-10-01T00:26:51.525Z,99047.28
2022-10-01T00:29:19.132Z,99045.59
2022-10-01T00:31:46.655Z,99048.75
2022-10-01T00:34:15.547Z,99053.44
2022-10-01T00:36:43.192Z,99057.94
2022-10-01T00:39:12.197Z,99055.59
2022-10-01T00:41:40.280Z,99054.09
2022-10-01T00:44:34.498Z,99050.09
2022-10-01T00:47:05.041Z,99050.94
2022-10-01T00:49:37.730Z,99059.78
2022-10-01T00:52:10.144Z,99062.09
2022-10-01T00:54:50.957Z,99064.59
2022-10-01T00:57:22.042Z,99074.13
2022-10-01T00:59:51.993Z,99062.97
2022-10-01T01:02:19.612Z,99075.81
2022-10-01T01:04:48.284Z,99074.09
2022-10-01T01:07:16.289Z,99080.13
2022-10-01T01:09:47.187Z,99082.94
2022-10-01T01:12:24.807Z,99088.56
2022-10-01T01:15:14.329Z,99086.59
2022-10-01T01:17:57.125Z,99083.75
2022-10-01T01:21:02.789Z,99093.75
2022-10-01T01:23:45.812Z,99097.44
2022-10-01T01:26:22.049Z,99089.44
2022-10-01T01:28:55.277Z,99088.25
2022-10-01T01:31:30.424Z,99085.94
2022-10-01T01:34:00.126Z,99087.41
2022-10-01T01:36:37.144Z,99090.59
2022-10-01T01:39:08.452Z,99085.41
2022-10-01T01:41:41.004Z,99095.09
2022-10-01T01:44:12.328Z,99095.59
2022-10-01T01:46:44.332Z,99106.56
2022-10-01T01:49:16.524Z,99111.09
2022-10-01T01:51:51.184Z,99109.56
2022-10-01T01:54:20.423Z,99108.91
2022-10-01T01:56:50.361Z,99109.25
2022-10-01T01:59:19.629Z,99121.13
2022-10-01T02:01:49.569Z,99120.44
2022-10-01T02:04:36.816Z,99116.13
2022-10-01T02:07:24.128Z,99126.63
2022-10-01T02:10:03.534Z,99136.09
2022-10-01T02:12:36.219Z,99144.06
2022-10-01T02:15:36.173Z,99131.91
2022-10-01T02:18:09.860Z,99132.72
2022-10-01T02:20:42.237Z,99139.03
2022-10-01T02:23:15.527Z,99130.84
2022-10-01T02:25:46.582Z,99143.16
2022-10-01T02:28:22.880Z,99128.94
2022-10-01T02:30:54.117Z,99129.06
2022-10-01T02:33:29.724Z,99138.25
2022-10-01T02:36:00.128Z,99132.22
2022-10-01T02:38:29.157Z,99129.34
2022-10-01T02:41:02.573Z,99125.34
2022-10-01T02:43:39.416Z,99131.50
2022-10-01T02:46:32.659Z,99130.69
2022-10-01T02:49:02.954Z,99137.84
2022-10-01T02:52:02.825Z,99140.22
2022-10-01T02:54:51.107Z,99152.75
2022-10-01T02:57:27.093Z,99151.06
2022-10-01T03:00:03.534Z,99158.25
2022-10-01T03:02:33.039Z,99151.25
2022-10-01T03:05:01.082Z,99154.09
2022-10-01T03:07:30.747Z,99153.13
2022-10-01T03:09:58.336Z,99156.66
2022-10-01T03:12:25.888Z,99157.53
2022-10-01T03:14:53.818Z,99164.38
2022-10-01T03:17:21.642Z,99168.03
2022-10-01T03:19:49.280Z,99170.69
2022-10-01T03:22:22.840Z,99172.53
2022-10-01T03:24:51.589Z,99173.38
2022-10-01T03:27:20.563Z,99179.38
2022-10-01T03:29:49.030Z,99183.91
2022-10-01T03:32:17.312Z,99177.72
2022-10-01T03:34:45.046Z,99185.88
2022-10-01T03:37:12.513Z,99175.72
2022-10-01T03:39:40.275Z,99178.06
2022-10-01T03:42:07.752Z,99178.59
2022-10-01T03:44:35.357Z,99180.75
2022-10-01T03:47:02.989Z,99182.25
2022-10-01T03:49:30.533Z,99185.44
2022-10-01T03:51:58.026Z,99181.44
2022-10-01T03:54:26.363Z,99178.28
2022-10-01T03:56:53.893Z,99184.94
2022-10-01T03:59:21.496Z,99196.63
2022-10-01T04:01:49.118Z,99203.13
2022-10-01T04:04:16.789Z,99210.13
2022-10-01T04:06:44.275Z,99201.78
2022-10-01T04:09:11.807Z,99207.81
2022-10-01T04:11:39.681Z,99204.13
2022-10-01T04:14:07.335Z,99196.94
2022-10-01T04:16:36.273Z,99203.13
2022-10-01T04:19:05.105Z,99206.47
2022-10-01T04:21:33.025Z,99202.44
2022-10-01T04:24:03.075Z,99211.81
2022-10-01T04:26:30.745Z,99213.47
2022-10-01T04:28:58.392Z,99228.97
2022-10-01T04:31:26.053Z,99244.16
2022-10-01T04:33:55.400Z,99244.81
2022-10-01T04:36:24.946Z,99243.31
2022-10-01T04:39:01.684Z,99234.59
2022-10-01T04:41:31.801Z,99236.94
2022-10-01T04:44:00.540Z,99245.63
2022-10-01T04:46:31.065Z,99239.44
2022-10-01T04:48:58.659Z,99240.28
2022-10-01T04:51:26.179Z,99241.28
2022-10-01T04:53:53.695Z,99236.59
2022-10-01T04:56:21.166Z,99238.28
2022-10-01T04:58:49.200Z,99234.59
2022-10-01T05:01:16.745Z,99234.59
2022-10-01T05:03:44.359Z,99242.41
2022-10-01T05:06:11.870Z,99239.75
2022-10-01T05:08:39.488Z,99240.75
2022-10-01T05:11:06.952Z,99244.59
2022-10-01T05:13:34.432Z,99259.97
2022-10-01T05:16:03.850Z,99252.31
2022-10-01T05:18:32.487Z,99257.78
2022-10-01T05:21:05.392Z,99256.13
2022-10-01T05:23:34.259Z,99264.16
2022-10-01T05:26:04.280Z,99260.47
2022-10-01T05:28:33.435Z,99271.97
2022-10-01T05:31:04.526Z,99270.31
2022-10-01T05:33:32.236Z,99269.69
2022-10-01T05:36:00.051Z,99277.69
2022-10-01T05:38:27.567Z,99286.69
2022-10-01T05:40:55.063Z,99293.53
2022-10-01T05:43:22.917Z,99298.34
2022-10-01T05:45:51.336Z,99294.38
2022-10-01T05:48:19.147Z,99293.34
2022-10-01T05:50:46.853Z,99293.34
2022-10-01T05:53:15.807Z,99295.84
2022-10-01T05:55:43.291Z,99296.22
2022-10-01T05:58:13.670Z,99311.88
2022-10-01T06:00:42.877Z,99308.38
2022-10-01T06:03:15.354Z,99309.22
2022-10-01T06:05:44.335Z,99311.72
2022-10-01T06:08:12.297Z,99325.41
2022-10-01T06:10:40.016Z,99327.25
2022-10-01T06:13:07.863Z,99327.91
2022-10-01T06:15:38.189Z,99331.41
2022-10-01T06:18:08.442Z,99331.25
2022-10-01T06:20:36.777Z,99329.25
2022-10-01T06:23:07.395Z,99331.25
2022-10-01T06:25:36.594Z,99334.91
2022-10-01T06:28:06.400Z,99343.91
2022-10-01T06:30:35.684Z,99339.44
2022-10-01T06:33:06.998Z,99349.25
2022-10-01T06:35:36.774Z,99343.25
2022-10-01T06:38:04.806Z,99350.75
2022-10-01T06:40:32.514Z,99351.41
2022-10-01T06:43:00.087Z,99341.91
2022-10-01T06:45:29.938Z,99349.41
2022-10-01T06:48:02.849Z,99347.59
2022-10-01T06:50:31.929Z,99366.81
2022-10-01T06:53:00.654Z,99373.16
2022-10-01T06:55:31.424Z,99356.59
2022-10-01T06:58:04.419Z,99354.75
2022-10-01T07:00:33.918Z,99349.09
2022-10-01T07:03:02.073Z,99357.63
2022-10-01T07:05:30.104Z,99349.59
2022-10-01T07:07:57.622Z,99358.44
2022-10-01T07:10:25.503Z,99358.59
2022-10-01T07:12:53.186Z,99365.47
2022-10-01T07:15:25.726Z,99371.94
2022-10-01T07:17:53.308Z,99385.47
2022-10-01T07:20:21.789Z,99387.63
2022-10-01T07:22:49.870Z,99385.63
2022-10-01T07:25:17.409Z,99381.44
2022-10-01T07:27:44.984Z,99386.63
2022-10-01T07:30:12.523Z,99396.94
2022-10-01T07:32:43.246Z,99398.91
2022-10-01T07:35:10.936Z,99398.69
2022-10-01T07:37:38.520Z,99406.19
2022-10-01T07:40:07.679Z,99402.19
2022-10-01T07:42:35.950Z,99417.38
2022-10-01T07:45:06.671Z,99420.03
2022-10-01T07:47:34.286Z,99431.47
2022-10-01T07:50:02.125Z,99432.31
2022-10-01T07:52:29.924Z,99457.75
2022-10-01T07:54:57.606Z,99433.22
2022-10-01T07:57:25.161Z,99454.94
2022-10-01T07:59:55.829Z,99448.09
2022-10-01T08:02:23.840Z,99450.63
2022-10-01T08:05:09.944Z,99443.78
2022-10-01T08:07:37.444Z,99438.56
2022-10-01T08:10:05.654Z,99435.22
2022-10-01T08:12:33.195Z,99451.25
2022-10-01T08:15:02.310Z,99447.22
2022-10-01T08:17:30.294Z,99450.22
2022-10-01T08:19:57.782Z,99460.06
2022-10-01T08:22:25.301Z,99465.41
2022-10-01T08:24:54.653Z,99464.41
2022-10-01T08:27:25.043Z,99483.63
2022-10-01T08:29:52.895Z,99485.13
2022-10-01T08:32:25.498Z,99492.66
2022-10-01T08:34:56.732Z,99497.81
2022-10-01T08:37:27.268Z,99500.00
2022-10-01T08:39:56.258Z,99512.19
2022-10-01T08:43:14.401Z,99518.22
2022-10-01T08:45:49.258Z,99505.22
2022-10-01T08:48:19.838Z,99508.75
2022-10-01T08:50:57.575Z,99514.25
2022-10-01T08:53:41.567Z,99504.94
2022-10-01T08:56:30.662Z,99517.56
2022-10-01T08:59:02.697Z,99526.28
2022-10-01T09:01:31.316Z,99536.16
2022-10-01T09:03:59.726Z,99538.34
2022-10-01T09:06:28.356Z,99525.97
2022-10-01T09:09:20.409Z,99536.97
2022-10-01T09:11:59.714Z,99521.19
2022-10-01T09:14:58.591Z,99528.81
2022-10-01T09:17:53.774Z,99531.19
2022-10-01T09:20:27.531Z,99528.47
2022-10-01T09:23:12.325Z,99531.44
2022-10-01T09:25:41.010Z,99533.19
2022-10-01T09:28:32.215Z,99541.66
2022-10-01T09:31:08.825Z,99550.44
2022-10-01T09:33:41.028Z,99556.56
2022-10-01T09:36:30.520Z,99574.50
2022-10-01T09:39:32.527Z,99573.72
2022-10-01T09:42:00.162Z,99579.25
2022-10-01T09:44:30.351Z,99580.94
2022-10-01T09:46:58.584Z,99589.97
2022-10-01T09:49:43.765Z,99587.81
2022-10-01T09:52:18.858Z,99593.34
2022-10-01T09:54:56.153Z,99610.06
2022-10-01T09:57:28.559Z,99610.72
2022-10-01T10:00:20.412Z,99603.72
2022-10-01T10:02:50.841Z,99615.06
2022-10-01T10:05:41.516Z,99629.63
2022-10-01T10:08:34.231Z,99630.63
2022-10-01T10:11:09.006Z,99632.31
2022-10-01T10:13:40.958Z,99621.81
2022-10-01T10:16:26.868Z,99614.72
2022-10-01T10:18:58.696Z,99617.81
2022-10-01T10:21:30.124Z,99627.91
2022-10-01T10:24:23.572Z,99630.38
2022-10-01T10:26:57.249Z,99633.13
2022-10-01T10:29:27.770Z,99640.44
2022-10-01T10:31:55.564Z,99652.91
2022-10-01T10:34:39.716Z,99654.72
2022-10-01T10:37:17.054Z,99658.72
2022-10-01T10:39:54.110Z,99657.16
2022-10-01T10:42:28.100Z,99666.84
2022-10-01T10:45:03.307Z,99662.81
2022-10-01T10:47:33.256Z,99667.06
2022-10-01T10:50:04.600Z,99666.44
2022-10-01T10:52:37.281Z,99674.47
2022-10-01T10:55:23.676Z,99676.97
2022-10-01T10:57:57.347Z,99675.50
2022-10-01T11:00:27.069Z,99680.94
2022-10-01T11:03:04.739Z,99681.28
2022-10-01T11:05:40.073Z,99680.34
2022-10-01T11:08:17.536Z,99695.34
2022-10-01T11:11:16.079Z,99692.56
2022-10-01T11:13:50.542Z,99705.25
2022-10-01T11:16:44.287Z,99705.34
2022-10-01T11:19:17.674Z,99711.06
2022-10-01T11:21:54.263Z,99719.84
2022-10-01T11:25:06.185Z,99712.81
2022-10-01T11:28:10.533Z,99714.28
2022-10-01T11:30:44.069Z,99708.88
2022-10-01T11:33:26.726Z,99712.75
2022-10-01T11:36:15.055Z,99704.88
2022-10-01T11:38:51.658Z,99713.97
2022-10-01T11:41:39.682Z,99703.84
2022-10-01T11:44:22.311Z,99712.53
2022-10-01T11:47:01.747Z,99719.19
2022-10-01T11:49:45.364Z,99729.94
2022-10-01T11:52:32.729Z,99717.28
2022-10-01T11:55:37.242Z,99727.78
2022-10-01T11:58:32.754Z,99728.03
2022-10-01T12:01:09.839Z,99726.97
2022-10-01T12:03:55.186Z,99738.31
2022-10-01T12:06:28.490Z,99736.03
2022-10-01T12:09:19.906Z,99752.41
2022-10-01T12:12:06.007Z,99734.59
2022-10-01T12:14:49.265Z,99733.34
2022-10-01T12:17:40.328Z,99738.44
2022-10-01T12:20:20.750Z,99740.69
2022-10-01T12:22:49.863Z,99749.84
2022-10-01T12:25:20.074Z,99747.38
2022-10-01T12:28:11.428Z,99754.78
2022-10-01T12:30:48.793Z,99767.66
2022-10-01T12:33:27.893Z,99764.38
2022-10-01T12:36:20.962Z,99758.78
2022-10-01T12:39:03.444Z,99761.56
2022-10-01T12:42:00.788Z,99771.53
2022-10-01T12:44:40.446Z,99759.53
2022-10-01T12:47:30.285Z,99771.22
2022-10-01T12:50:08.297Z,99760.03
2022-10-01T12:53:03.669Z,99767.41
2022-10-01T12:55:45.982Z,99777.53
2022-10-01T12:58:19.781Z,99780.03
2022-10-01T13:00:56.425Z,99769.31
2022-10-01T13:03:47.826Z,99784.47
2022-10-01T13:06:18.880Z,99795.09
2022-10-01T13:09:12.293Z,99812.19
2022-10-01T13:11:49.365Z,99814.75
2022-10-01T13:14:18.196Z,99815.19
2022-10-01T13:17:11.280Z,99809.97
2022-10-01T13:19:53.015Z,99835.56
2022-10-01T13:22:46.248Z,99824.00
2022-10-01T13:25:29.297Z,99845.44
2022-10-01T13:28:06.077Z,99857.03
2022-10-01T13:30:55.827Z,99858.56
2022-10-01T13:33:26.375Z,99871.97
2022-10-01T13:35:57.536Z,99880.69
2022-10-01T13:38:46.543Z,99874.75
2022-10-01T13:41:18.761Z,99873.19
2022-10-01T13:44:23.221Z,99871.19
2022-10-01T13:47:07.196Z,99877.38
2022-10-01T13:49:37.684Z,99873.28
2022-10-01T13:52:06.197Z,99881.03
2022-10-01T13:54:45.643Z,99887.56
2022-10-01T13:57:37.390Z,99878.72
2022-10-01T14:00:16.977Z,99884.66
2022-10-01T14:02:58.875Z,99882.03
2022-10-01T14:05:35.027Z,99887.97
2022-10-01T14:08:25.094Z,99892.59
2022-10-01T14:11:27.696Z,99898.84
2022-10-01T14:14:16.590Z,99899.69
2022-10-01T14:16:47.151Z,99903.59
2022-10-01T14:19:19.896Z,99909.78
2022-10-01T14:21:47.443Z,99905.34
2022-10-01T14:24:29.975Z,99915.84
2022-10-01T14:27:08.134Z,99915.47
2022-10-01T14:29:58.804Z,99908.28
2022-10-01T14:32:48.232Z,99906.69
2022-10-01T14:35:36.922Z,99905.31
2022-10-01T14:38:13.426Z,99899.59
2022-10-01T14:40:47.410Z,99894.41
2022-10-01T14:43:30.319Z,99907.38
2022-10-01T14:46:06.569Z,99894.84
2022-10-01T14:48:37.950Z,99910.53
2022-10-01T14:51:08.185Z,99911.16
2022-10-01T14:53:38.399Z,99906.72
2022-10-01T14:56:11.511Z,99905.13
2022-10-01T14:58:41.023Z,99916.75
2022-10-01T15:01:20.642Z,99913.94
2022-10-01T15:03:50.107Z,99917.81
2022-10-01T15:06:30.143Z,99917.59
2022-10-01T15:09:13.184Z,99925.19
2022-10-01T15:11:44.730Z,99934.44
2022-10-01T15:14:18.994Z,99949.91
2022-10-01T15:16:47.014Z,99930.47
2022-10-01T15:19:17.577Z,99923.38
2022-10-01T15:21:56.595Z,99943.91
2022-10-01T15:24:28.941Z,99942.22
2022-10-01T15:26:57.959Z,99952.69
2022-10-01T15:29:25.575Z,99952.38
2022-10-01T15:31:53.861Z,99960.66
2022-10-01T15:34:25.452Z,99955.78
2022-10-01T15:36:59.977Z,99955.19
2022-10-01T15:39:43.293Z,99958.47
2022-10-01T15:42:31.309Z,99966.59
2022-10-01T15:45:07.947Z,99968.28
2022-10-01T15:47:56.817Z,99967.34
2022-10-01T15:50:29.373Z,99977.56
2022-10-01T15:53:10.251Z,99966.88
2022-10-01T15:55:49.586Z,99970.66
2022-10-01T15:58:27.008Z,99971.28
2022-10-01T16:01:06.468Z,99976.28
2022-10-01T16:03:38.898Z,99964.53
2022-10-01T16:06:17.642Z,99988.59
2022-10-01T16:09:11.966Z,99992.16
2022-10-01T16:12:18.472Z,99991.56
2022-10-01T16:15:07.099Z,100005.22
2022-10-01T16:17:38.655Z,99996.03
2022-10-01T16:20:15.358Z,100015.69
2022-10-01T16:22:43.776Z,100020.78
2022-10-01T16:25:17.344Z,100023.00
2022-10-01T16:27:49.893Z,100034.47
2022-10-01T16:30:22.934Z,100037.81
2022-10-01T16:32:50.554Z,100048.94
2022-10-01T16:35:22.191Z,100062.88
2022-10-01T16:37:51.883Z,100055.16
2022-10-01T16:40:22.369Z,100060.69
2022-10-01T16:42:51.144Z,100058.00
2022-10-01T16:45:27.839Z,100063.69
2022-10-01T16:47:59.406Z,100062.53
2022-10-01T16:50:27.185Z,100080.09
2022-10-01T16:52:56.198Z,100089.63
2022-10-01T16:55:26.352Z,100086.63
2022-10-01T16:57:57.183Z,100106.50
2022-10-01T17:00:26.463Z,100106.41
2022-10-01T17:02:55.274Z,100108.34
2022-10-01T17:05:31.335Z,100099.75
2022-10-01T17:08:01.102Z,100105.22
2022-10-01T17:10:31.764Z,100099.28
2022-10-01T17:12:59.743Z,100116.22
2022-10-01T17:15:28.001Z,100111.38
2022-10-01T17:17:57.411Z,100118.41
2022-10-01T17:20:28.515Z,100117.72
2022-10-01T17:22:57.921Z,100107.84
2022-10-01T17:25:32.386Z,100113.19
2022-10-01T17:28:02.641Z,100123.91
2022-10-01T17:30:30.854Z,100129.59
2022-10-01T17:33:00.066Z,100126.38
2022-10-01T17:35:29.240Z,100134.19
2022-10-01T17:37:57.259Z,100144.69
2022-10-01T17:40:24.788Z,100147.84
2022-10-01T17:42:52.412Z,100150.34
2022-10-01T17:45:20.139Z,100154.72
2022-10-01T17:47:50.395Z,100172.16
2022-10-01T17:50:18.583Z,100166.63
2022-10-01T17:52:49.051Z,100168.31
2022-10-01T17:55:17.454Z,100166.63
2022-10-01T17:57:44.947Z,100166.97
2022-10-01T18:00:12.750Z,100167.63
2022-10-01T18:02:42.556Z,100165.47
2022-10-01T18:05:14.961Z,100175.88
2022-10-01T18:07:43.109Z,100176.56
2022-10-01T18:10:12.931Z,100178.94
2022-10-01T18:12:41.047Z,100184.13
2022-10-01T18:15:09.490Z,100185.13
2022-10-01T18:17:43.262Z,100197.38
2022-10-01T18:20:11.380Z,100208.06
2022-10-01T18:22:38.924Z,100211.41
2022-10-01T18:25:07.093Z,100211.13
2022-10-01T18:27:34.891Z,100215.31
2022-10-01T18:30:02.444Z,100224.06
2022-10-01T18:32:40.801Z,100219.84
2022-10-01T18:35:32.954Z,100218.69
2022-10-01T18:38:14.737Z,100231.78
2022-10-01T18:40:43.830Z,100239.63
2022-10-01T18:43:26.369Z,100243.16
2022-10-01T18:46:19.111Z,100238.50
2022-10-01T18:48:55.268Z,100251.06
2022-10-01T18:51:31.849Z,100252.03
2022-10-01T18:54:14.574Z,100257.84
2022-10-01T18:56:53.636Z,100265.50
2022-10-01T18:59:30.411Z,100263.47
2022-10-01T19:02:09.237Z,100272.78
2022-10-01T19:04:55.907Z,100278.13
2022-10-01T19:07:33.678Z,100280.16
2022-10-01T19:10:16.557Z,100286.47
2022-10-01T19:13:02.863Z,100285.63
2022-10-01T19:15:49.307Z,100286.47
2022-10-01T19:18:29.411Z,100287.47
2022-10-01T19:21:08.297Z,100289.16
2022-10-01T19:23:41.958Z,100291.00
2022-10-01T19:26:09.622Z,100287.78
2022-10-01T19:28:40.179Z,100303.31
2022-10-01T19:31:32.679Z,100300.22
2022-10-01T19:34:09.015Z,100297.03
2022-10-01T19:36:45.693Z,100307.50
2022-10-01T19:39:21.490Z,100305.28
2022-10-01T19:41:58.787Z,100323.19
2022-10-01T19:44:36.448Z,100318.78
2022-10-01T19:47:45.930Z,100321.47
2022-10-01T19:50:27.328Z,100328.66
2022-10-01T19:52:59.118Z,100326.00
2022-10-01T19:55:32.929Z,100327.00
2022-10-01T19:58:02.893Z,100332.19
2022-10-01T20:00:32.069Z,100333.03
2022-10-01T20:03:22.978Z,100337.22
2022-10-01T20:06:00.403Z,100345.25
2022-10-01T20:08:55.930Z,100346.97
2022-10-01T20:11:30.295Z,100356.66
2022-10-01T20:14:36.615Z,100357.81
2022-10-01T20:17:47.899Z,100350.59
2022-10-01T20:20:30.869Z,100357.13
2022-10-01T20:23:04.522Z,100358.41
2022-10-01T20:26:04.773Z,100372.22
2022-10-01T20:28:39.213Z,100375.34
2022-10-01T20:31:26.416Z,100381.97
2022-10-01T20:34:01.350Z,100380.44
2022-10-01T20:36:58.486Z,100396.09
2022-10-01T20:39:32.454Z,100392.88
2022-10-01T20:42:01.028Z,100395.56
2022-10-01T20:44:33.791Z,100387.53
2022-10-01T20:47:06.708Z,100402.75
2022-10-01T20:49:46.549Z,100399.06
2022-10-01T20:52:39.027Z,100409.47
2022-10-01T20:55:18.086Z,100422.41
2022-10-01T20:57:53.409Z,100422.66
2022-10-01T21:00:24.818Z,100419.56
2022-10-01T21:03:31.890Z,100424.63
2022-10-01T21:06:16.213Z,100432.19
2022-10-01T21:09:40.894Z,100436.25
2022-10-01T21:12:20.735Z,100443.16
2022-10-01T21:14:53.725Z,100445.44
2022-10-01T21:17:33.558Z,100452.34
2022-10-01T21:20:02.285Z,100445.34
2022-10-01T21:22:38.859Z,100447.34
2022-10-01T21:25:45.999Z,100441.31
2022-10-01T21:28:22.296Z,100448.38
2022-10-01T21:31:02.365Z,100451.78
2022-10-01T21:33:34.726Z,100448.66
2022-10-01T21:36:16.515Z,100454.28
2022-10-01T21:38:54.413Z,100465.28
2022-10-01T21:41:53.806Z,100458.69
2022-10-01T21:44:33.546Z,100457.25
2022-10-01T21:47:12.947Z,100473.59
2022-10-01T21:50:12.142Z,100459.66
2022-10-01T21:52:54.935Z,100458.13
2022-10-01T21:55:45.370Z,100467.00
2022-10-01T21:58:34.604Z,100477.81
2022-10-01T22:01:08.837Z,100481.47
2022-10-01T22:03:48.375Z,100494.56
2022-10-01T22:06:39.667Z,100504.13
2022-10-01T22:09:24.489Z,100502.41
2022-10-01T22:11:56.352Z,100497.06
2022-10-01T22:14:25.719Z,100505.38
2022-10-01T22:16:58.573Z,100519.44
2022-10-01T22:19:29.673Z,100513.38
2022-10-01T22:22:22.343Z,100517.34
2022-10-01T22:24:53.295Z,100531.81
2022-10-01T22:27:27.888Z,100546.47
2022-10-01T22:30:04.002Z,100557.31
2022-10-01T22:32:39.207Z,100564.47
2022-10-01T22:35:19.402Z,100566.72
2022-10-01T22:37:56.987Z,100574.88
2022-10-01T22:40:32.480Z,100581.22
2022-10-01T22:43:08.590Z,100584.03
2022-10-01T22:46:07.849Z,100594.19
2022-10-01T22:49:00.091Z,100600.81
2022-10-01T22:52:16.203Z,100603.22
2022-10-01T22:54:52.307Z,100605.75
2022-10-01T22:57:36.358Z,100613.47
2022-10-01T23:00:13.859Z,100615.88
2022-10-01T23:02:41.407Z,100614.75
2022-10-01T23:05:22.685Z,100625.03
2022-10-01T23:07:53.387Z,100626.00
2022-10-01T23:10:28.523Z,100622.09
2022-10-01T23:13:15.447Z,100614.19
2022-10-01T23:15:49.036Z,100616.03
2022-10-01T23:18:47.092Z,100616.25
2022-10-01T23:21:43.829Z,100616.97
2022-10-01T23:24:29.412Z,100614.97
2022-10-01T23:27:15.171Z,100621.16
2022-10-01T23:30:11.840Z,100609.06
2022-10-01T23:33:03.953Z,100612.19
2022-10-01T23:35:37.957Z,100609.78
2022-10-01T23:38:34.774Z,100616.81
2022-10-01T23:41:19.028Z,100625.66
2022-10-01T23:43:50.057Z,100631.69
2022-10-01T23:46:27.470Z,100631.41
2022-10-01T23:49:23.989Z,100646.16
2022-10-01T23:52:05.648Z,100641.34
2022-10-01T23:54:39.546Z,100655.13
2022-10-01T23:57:18.227Z,100655.50
